sensor_id;sensor_type;location;lat;lon;timestamp;P1;durP1;ratioP1;P2;durP2;ratioP2
51384;SDS011;37478;55.682;37.462;2023-04-03T00:01:46;10.63;;;7.25;;
51384;SDS011;37478;55.682;37.462;2023-04-03T00:04:12;15.07;;;8.88;;
51384;SDS011;37478;55.682;37.462;2023-04-03T00:06:37;9.70;;;7.00;;
51384;SDS011;37478;55.682;37.462;2023-04-03T00:09:02;15.38;;;9.15;;
51384;SDS011;37478;55.682;37.462;2023-04-03T00:11:28;23.17;;;12.38;;
51384;SDS011;37478;55.682;37.462;2023-04-03T00:13:53;14.02;;;6.97;;
51384;SDS011;37478;55.682;37.462;2023-04-03T00:16:18;11.45;;;7.60;;
51384;SDS011;37478;55.682;37.462;2023-04-03T00:18:43;12.55;;;8.02;;
51384;SDS011;37478;55.682;37.462;2023-04-03T00:21:09;16.05;;;7.70;;
51384;SDS011;37478;55.682;37.462;2023-04-03T00:23:35;15.20;;;8.55;;
51384;SDS011;37478;55.682;37.462;2023-04-03T00:26:00;13.02;;;7.35;;
51384;SDS011;37478;55.682;37.462;2023-04-03T00:28:26;15.30;;;8.35;;
51384;SDS011;37478;55.682;37.462;2023-04-03T00:30:52;15.48;;;9.35;;
51384;SDS011;37478;55.682;37.462;2023-04-03T00:33:17;11.27;;;7.55;;
51384;SDS011;37478;55.682;37.462;2023-04-03T00:35:42;16.73;;;8.15;;
51384;SDS011;37478;55.682;37.462;2023-04-03T00:38:08;15.02;;;7.55;;
51384;SDS011;37478;55.682;37.462;2023-04-03T00:40:34;11.40;;;7.97;;
51384;SDS011;37478;55.682;37.462;2023-04-03T00:43:00;11.63;;;7.28;;
51384;SDS011;37478;55.682;37.462;2023-04-03T00:47:57;10.45;;;6.97;;
51384;SDS011;37478;55.682;37.462;2023-04-03T00:50:25;11.90;;;7.15;;
51384;SDS011;37478;55.682;37.462;2023-04-03T00:52:50;13.30;;;7.35;;
51384;SDS011;37478;55.682;37.462;2023-04-03T00:55:16;13.93;;;8.38;;
51384;SDS011;37478;55.682;37.462;2023-04-03T00:57:41;12.60;;;8.20;;
51384;SDS011;37478;55.682;37.462;2023-04-03T01:00:09;15.32;;;8.32;;
51384;SDS011;37478;55.682;37.462;2023-04-03T01:02:35;11.90;;;7.38;;
51384;SDS011;37478;55.682;37.462;2023-04-03T01:05:00;12.00;;;6.65;;
51384;SDS011;37478;55.682;37.462;2023-04-03T01:07:27;12.07;;;8.00;;
51384;SDS011;37478;55.682;37.462;2023-04-03T01:09:56;15.05;;;7.45;;
51384;SDS011;37478;55.682;37.462;2023-04-03T01:12:23;12.27;;;7.30;;
51384;SDS011;37478;55.682;37.462;2023-04-03T01:14:50;12.10;;;7.20;;
51384;SDS011;37478;55.682;37.462;2023-04-03T01:17:30;10.65;;;8.27;;
51384;SDS011;37478;55.682;37.462;2023-04-03T01:20:10;10.48;;;7.05;;
51384;SDS011;37478;55.682;37.462;2023-04-03T01:22:44;12.70;;;7.60;;
51384;SDS011;37478;55.682;37.462;2023-04-03T01:25:11;18.38;;;8.23;;
51384;SDS011;37478;55.682;37.462;2023-04-03T01:27:36;12.18;;;8.30;;
51384;SDS011;37478;55.682;37.462;2023-04-03T01:30:02;13.90;;;7.78;;
51384;SDS011;37478;55.682;37.462;2023-04-03T01:32:27;9.52;;;6.68;;
51384;SDS011;37478;55.682;37.462;2023-04-03T01:34:52;11.10;;;7.07;;
51384;SDS011;37478;55.682;37.462;2023-04-03T01:37:18;12.82;;;7.93;;
51384;SDS011;37478;55.682;37.462;2023-04-03T01:39:43;11.18;;;6.97;;
51384;SDS011;37478;55.682;37.462;2023-04-03T01:42:08;12.48;;;7.97;;
51384;SDS011;37478;55.682;37.462;2023-04-03T01:44:34;12.27;;;7.45;;
51384;SDS011;37478;55.682;37.462;2023-04-03T01:46:59;12.25;;;7.32;;
51384;SDS011;37478;55.682;37.462;2023-04-03T01:49:24;16.27;;;7.97;;
51384;SDS011;37478;55.682;37.462;2023-04-03T01:51:49;15.70;;;7.78;;
51384;SDS011;37478;55.682;37.462;2023-04-03T01:54:15;11.30;;;7.60;;
51384;SDS011;37478;55.682;37.462;2023-04-03T01:56:40;9.77;;;6.60;;
51384;SDS011;37478;55.682;37.462;2023-04-03T01:59:05;11.05;;;7.35;;
51384;SDS011;37478;55.682;37.462;2023-04-03T02:01:31;11.43;;;6.88;;
51384;SDS011;37478;55.682;37.462;2023-04-03T02:03:56;14.90;;;7.72;;
51384;SDS011;37478;55.682;37.462;2023-04-03T02:06:21;11.70;;;7.43;;
51384;SDS011;37478;55.682;37.462;2023-04-03T02:08:47;12.07;;;7.13;;
51384;SDS011;37478;55.682;37.462;2023-04-03T02:11:12;13.25;;;8.27;;
51384;SDS011;37478;55.682;37.462;2023-04-03T02:13:37;12.45;;;7.82;;
51384;SDS011;37478;55.682;37.462;2023-04-03T02:16:06;12.13;;;7.50;;
51384;SDS011;37478;55.682;37.462;2023-04-03T02:18:32;14.75;;;7.80;;
51384;SDS011;37478;55.682;37.462;2023-04-03T02:20:57;14.10;;;7.30;;
51384;SDS011;37478;55.682;37.462;2023-04-03T02:23:22;13.95;;;8.30;;
51384;SDS011;37478;55.682;37.462;2023-04-03T02:25:47;15.82;;;8.70;;
51384;SDS011;37478;55.682;37.462;2023-04-03T02:28:14;13.10;;;8.20;;
51384;SDS011;37478;55.682;37.462;2023-04-03T02:30:39;15.65;;;8.48;;
51384;SDS011;37478;55.682;37.462;2023-04-03T02:33:04;16.63;;;8.73;;
51384;SDS011;37478;55.682;37.462;2023-04-03T02:35:29;19.70;;;10.10;;
51384;SDS011;37478;55.682;37.462;2023-04-03T02:37:55;17.33;;;9.00;;
51384;SDS011;37478;55.682;37.462;2023-04-03T02:40:20;15.77;;;8.07;;
51384;SDS011;37478;55.682;37.462;2023-04-03T02:42:46;13.70;;;8.38;;
51384;SDS011;37478;55.682;37.462;2023-04-03T02:45:11;16.67;;;7.78;;
51384;SDS011;37478;55.682;37.462;2023-04-03T02:47:36;16.27;;;8.68;;
51384;SDS011;37478;55.682;37.462;2023-04-03T02:50:01;19.23;;;8.85;;
51384;SDS011;37478;55.682;37.462;2023-04-03T02:52:27;12.73;;;8.40;;
51384;SDS011;37478;55.682;37.462;2023-04-03T02:54:52;15.35;;;8.07;;
51384;SDS011;37478;55.682;37.462;2023-04-03T02:57:17;15.73;;;8.40;;
51384;SDS011;37478;55.682;37.462;2023-04-03T02:59:44;14.07;;;8.63;;
51384;SDS011;37478;55.682;37.462;2023-04-03T03:02:10;14.95;;;8.63;;
51384;SDS011;37478;55.682;37.462;2023-04-03T03:04:35;18.52;;;9.15;;
51384;SDS011;37478;55.682;37.462;2023-04-03T03:07:01;14.00;;;7.97;;
51384;SDS011;37478;55.682;37.462;2023-04-03T03:09:26;14.70;;;7.93;;
51384;SDS011;37478;55.682;37.462;2023-04-03T03:11:51;15.55;;;8.85;;
51384;SDS011;37478;55.682;37.462;2023-04-03T03:14:17;15.43;;;10.10;;
51384;SDS011;37478;55.682;37.462;2023-04-03T03:16:42;12.15;;;8.27;;
51384;SDS011;37478;55.682;37.462;2023-04-03T03:19:07;14.68;;;8.98;;
51384;SDS011;37478;55.682;37.462;2023-04-03T03:21:33;20.92;;;8.65;;
51384;SDS011;37478;55.682;37.462;2023-04-03T03:23:58;16.38;;;9.38;;
51384;SDS011;37478;55.682;37.462;2023-04-03T03:26:23;16.30;;;9.40;;
51384;SDS011;37478;55.682;37.462;2023-04-03T03:28:49;14.48;;;8.45;;
51384;SDS011;37478;55.682;37.462;2023-04-03T03:31:14;16.17;;;9.85;;
51384;SDS011;37478;55.682;37.462;2023-04-03T03:33:40;18.25;;;9.60;;
51384;SDS011;37478;55.682;37.462;2023-04-03T03:36:06;19.70;;;9.95;;
51384;SDS011;37478;55.682;37.462;2023-04-03T03:38:31;16.38;;;8.63;;
51384;SDS011;37478;55.682;37.462;2023-04-03T03:40:56;17.63;;;9.85;;
51384;SDS011;37478;55.682;37.462;2023-04-03T03:43:22;14.98;;;9.48;;
51384;SDS011;37478;55.682;37.462;2023-04-03T03:45:51;17.48;;;9.82;;
51384;SDS011;37478;55.682;37.462;2023-04-03T03:48:17;16.13;;;9.02;;
51384;SDS011;37478;55.682;37.462;2023-04-03T03:50:43;15.23;;;9.60;;
51384;SDS011;37478;55.682;37.462;2023-04-03T03:53:08;14.05;;;9.18;;
51384;SDS011;37478;55.682;37.462;2023-04-03T03:55:33;18.85;;;11.20;;
51384;SDS011;37478;55.682;37.462;2023-04-03T03:57:58;19.00;;;9.95;;
51384;SDS011;37478;55.682;37.462;2023-04-03T04:00:26;23.00;;;10.73;;
51384;SDS011;37478;55.682;37.462;2023-04-03T04:02:51;15.07;;;9.45;;
51384;SDS011;37478;55.682;37.462;2023-04-03T04:05:16;15.93;;;9.57;;
51384;SDS011;37478;55.682;37.462;2023-04-03T04:07:41;16.45;;;9.02;;
51384;SDS011;37478;55.682;37.462;2023-04-03T04:10:07;16.08;;;9.13;;
51384;SDS011;37478;55.682;37.462;2023-04-03T04:12:32;16.83;;;9.40;;
51384;SDS011;37478;55.682;37.462;2023-04-03T04:14:58;13.48;;;8.90;;
51384;SDS011;37478;55.682;37.462;2023-04-03T04:17:23;14.27;;;10.05;;
51384;SDS011;37478;55.682;37.462;2023-04-03T04:19:48;17.00;;;10.70;;
51384;SDS011;37478;55.682;37.462;2023-04-03T04:22:13;16.77;;;9.43;;
51384;SDS011;37478;55.682;37.462;2023-04-03T04:24:39;15.50;;;9.38;;
51384;SDS011;37478;55.682;37.462;2023-04-03T04:27:04;16.65;;;10.32;;
51384;SDS011;37478;55.682;37.462;2023-04-03T04:29:29;15.93;;;10.07;;
51384;SDS011;37478;55.682;37.462;2023-04-03T04:32:00;20.33;;;9.93;;
51384;SDS011;37478;55.682;37.462;2023-04-03T04:34:25;16.52;;;9.88;;
51384;SDS011;37478;55.682;37.462;2023-04-03T04:36:50;18.25;;;9.93;;
51384;SDS011;37478;55.682;37.462;2023-04-03T04:39:16;17.95;;;9.98;;
51384;SDS011;37478;55.682;37.462;2023-04-03T04:41:41;15.95;;;11.35;;
51384;SDS011;37478;55.682;37.462;2023-04-03T04:44:06;18.10;;;9.63;;
51384;SDS011;37478;55.682;37.462;2023-04-03T04:46:32;16.23;;;11.90;;
51384;SDS011;37478;55.682;37.462;2023-04-03T04:48:57;18.75;;;11.75;;
51384;SDS011;37478;55.682;37.462;2023-04-03T04:51:22;18.95;;;10.35;;
51384;SDS011;37478;55.682;37.462;2023-04-03T04:53:47;17.27;;;10.93;;
51384;SDS011;37478;55.682;37.462;2023-04-03T04:56:13;19.23;;;12.43;;
51384;SDS011;37478;55.682;37.462;2023-04-03T04:58:38;19.70;;;11.35;;
51384;SDS011;37478;55.682;37.462;2023-04-03T05:01:04;19.85;;;11.23;;
51384;SDS011;37478;55.682;37.462;2023-04-03T05:03:30;22.98;;;11.55;;
51384;SDS011;37478;55.682;37.462;2023-04-03T05:05:56;22.10;;;12.02;;
51384;SDS011;37478;55.682;37.462;2023-04-03T05:08:21;20.60;;;12.05;;
51384;SDS011;37478;55.682;37.462;2023-04-03T05:10:47;24.02;;;12.52;;
51384;SDS011;37478;55.682;37.462;2023-04-03T05:13:12;22.90;;;12.95;;
51384;SDS011;37478;55.682;37.462;2023-04-03T05:15:38;27.73;;;15.07;;
51384;SDS011;37478;55.682;37.462;2023-04-03T05:18:09;18.70;;;11.02;;
51384;SDS011;37478;55.682;37.462;2023-04-03T05:20:34;22.45;;;13.02;;
51384;SDS011;37478;55.682;37.462;2023-04-03T05:23:00;26.65;;;12.70;;
51384;SDS011;37478;55.682;37.462;2023-04-03T05:25:25;22.40;;;12.88;;
51384;SDS011;37478;55.682;37.462;2023-04-03T05:27:51;24.20;;;11.05;;
51384;SDS011;37478;55.682;37.462;2023-04-03T05:30:16;24.40;;;12.88;;
51384;SDS011;37478;55.682;37.462;2023-04-03T05:32:42;20.83;;;12.60;;
51384;SDS011;37478;55.682;37.462;2023-04-03T05:35:07;22.40;;;12.35;;
51384;SDS011;37478;55.682;37.462;2023-04-03T05:37:33;19.90;;;12.45;;
51384;SDS011;37478;55.682;37.462;2023-04-03T05:39:59;22.75;;;12.00;;
51384;SDS011;37478;55.682;37.462;2023-04-03T05:42:24;20.63;;;11.70;;
51384;SDS011;37478;55.682;37.462;2023-04-03T05:44:49;18.85;;;11.20;;
51384;SDS011;37478;55.682;37.462;2023-04-03T05:47:15;20.77;;;12.40;;
51384;SDS011;37478;55.682;37.462;2023-04-03T05:49:40;21.13;;;11.95;;
51384;SDS011;37478;55.682;37.462;2023-04-03T05:52:10;21.35;;;11.65;;
51384;SDS011;37478;55.682;37.462;2023-04-03T05:54:41;19.13;;;12.55;;
51384;SDS011;37478;55.682;37.462;2023-04-03T05:57:08;15.77;;;11.57;;
51384;SDS011;37478;55.682;37.462;2023-04-03T05:59:33;23.73;;;12.52;;
51384;SDS011;37478;55.682;37.462;2023-04-03T06:01:58;21.23;;;13.32;;
51384;SDS011;37478;55.682;37.462;2023-04-03T06:04:23;32.53;;;17.40;;
51384;SDS011;37478;55.682;37.462;2023-04-03T06:06:53;24.98;;;12.45;;
51384;SDS011;37478;55.682;37.462;2023-04-03T06:09:20;19.08;;;11.77;;
51384;SDS011;37478;55.682;37.462;2023-04-03T06:11:46;19.48;;;11.02;;
51384;SDS011;37478;55.682;37.462;2023-04-03T06:14:11;16.23;;;10.55;;
51384;SDS011;37478;55.682;37.462;2023-04-03T06:16:37;17.58;;;10.82;;
51384;SDS011;37478;55.682;37.462;2023-04-03T06:19:03;18.52;;;11.30;;
51384;SDS011;37478;55.682;37.462;2023-04-03T06:21:29;18.40;;;11.20;;
51384;SDS011;37478;55.682;37.462;2023-04-03T06:23:55;15.50;;;10.45;;
51384;SDS011;37478;55.682;37.462;2023-04-03T06:26:20;19.38;;;10.90;;
51384;SDS011;37478;55.682;37.462;2023-04-03T06:28:46;18.23;;;11.43;;
51384;SDS011;37478;55.682;37.462;2023-04-03T06:31:11;19.40;;;12.15;;
51384;SDS011;37478;55.682;37.462;2023-04-03T06:33:36;18.73;;;11.32;;
51384;SDS011;37478;55.682;37.462;2023-04-03T06:36:09;22.30;;;12.27;;
51384;SDS011;37478;55.682;37.462;2023-04-03T06:38:35;20.65;;;13.07;;
51384;SDS011;37478;55.682;37.462;2023-04-03T06:41:00;19.85;;;12.90;;
51384;SDS011;37478;55.682;37.462;2023-04-03T06:43:25;21.60;;;11.43;;
51384;SDS011;37478;55.682;37.462;2023-04-03T06:45:51;18.90;;;11.38;;
51384;SDS011;37478;55.682;37.462;2023-04-03T06:48:16;17.80;;;11.23;;
51384;SDS011;37478;55.682;37.462;2023-04-03T06:50:42;18.77;;;11.30;;
51384;SDS011;37478;55.682;37.462;2023-04-03T06:53:07;20.38;;;11.18;;
51384;SDS011;37478;55.682;37.462;2023-04-03T06:55:33;22.52;;;12.60;;
51384;SDS011;37478;55.682;37.462;2023-04-03T06:57:58;18.88;;;11.63;;
51384;SDS011;37478;55.682;37.462;2023-04-03T07:00:24;18.55;;;11.63;;
51384;SDS011;37478;55.682;37.462;2023-04-03T07:02:50;21.45;;;13.18;;
51384;SDS011;37478;55.682;37.462;2023-04-03T07:05:15;16.48;;;11.35;;
51384;SDS011;37478;55.682;37.462;2023-04-03T07:07:40;24.15;;;12.07;;
51384;SDS011;37478;55.682;37.462;2023-04-03T07:10:06;25.40;;;13.45;;
51384;SDS011;37478;55.682;37.462;2023-04-03T07:12:32;18.88;;;11.10;;
51384;SDS011;37478;55.682;37.462;2023-04-03T07:14:57;26.02;;;13.07;;
51384;SDS011;37478;55.682;37.462;2023-04-03T07:17:23;24.20;;;11.32;;
51384;SDS011;37478;55.682;37.462;2023-04-03T07:19:48;21.60;;;12.40;;
51384;SDS011;37478;55.682;37.462;2023-04-03T07:22:14;25.23;;;11.70;;
51384;SDS011;37478;55.682;37.462;2023-04-03T07:24:39;19.08;;;11.65;;
51384;SDS011;37478;55.682;37.462;2023-04-03T07:27:05;16.73;;;10.00;;
51384;SDS011;37478;55.682;37.462;2023-04-03T07:29:31;19.98;;;11.77;;
51384;SDS011;37478;55.682;37.462;2023-04-03T07:31:56;26.70;;;12.38;;
51384;SDS011;37478;55.682;37.462;2023-04-03T07:34:23;17.80;;;10.88;;
51384;SDS011;37478;55.682;37.462;2023-04-03T07:36:48;22.88;;;11.45;;
51384;SDS011;37478;55.682;37.462;2023-04-03T07:39:13;27.52;;;12.60;;
51384;SDS011;37478;55.682;37.462;2023-04-03T07:41:38;18.60;;;10.93;;
51384;SDS011;37478;55.682;37.462;2023-04-03T07:44:04;23.83;;;11.70;;
51384;SDS011;37478;55.682;37.462;2023-04-03T07:46:30;23.05;;;11.07;;
51384;SDS011;37478;55.682;37.462;2023-04-03T07:48:56;23.13;;;10.57;;
51384;SDS011;37478;55.682;37.462;2023-04-03T07:51:21;19.33;;;11.02;;
51384;SDS011;37478;55.682;37.462;2023-04-03T07:53:46;16.63;;;10.35;;
51384;SDS011;37478;55.682;37.462;2023-04-03T07:56:11;20.73;;;11.68;;
51384;SDS011;37478;55.682;37.462;2023-04-03T07:58:37;19.73;;;11.23;;
51384;SDS011;37478;55.682;37.462;2023-04-03T08:01:02;25.42;;;12.15;;
51384;SDS011;37478;55.682;37.462;2023-04-03T08:03:28;21.50;;;10.85;;
51384;SDS011;37478;55.682;37.462;2023-04-03T08:05:53;23.80;;;11.88;;
51384;SDS011;37478;55.682;37.462;2023-04-03T08:08:19;19.40;;;10.50;;
51384;SDS011;37478;55.682;37.462;2023-04-03T08:10:48;26.40;;;11.00;;
51384;SDS011;37478;55.682;37.462;2023-04-03T08:13:13;13.25;;;9.07;;
51384;SDS011;37478;55.682;37.462;2023-04-03T08:15:38;18.23;;;8.82;;
51384;SDS011;37478;55.682;37.462;2023-04-03T08:18:04;17.45;;;8.73;;
51384;SDS011;37478;55.682;37.462;2023-04-03T08:20:30;22.40;;;9.77;;
51384;SDS011;37478;55.682;37.462;2023-04-03T08:22:55;18.17;;;8.13;;
51384;SDS011;37478;55.682;37.462;2023-04-03T08:25:20;16.23;;;8.45;;
51384;SDS011;37478;55.682;37.462;2023-04-03T08:27:46;17.75;;;8.63;;
51384;SDS011;37478;55.682;37.462;2023-04-03T08:30:11;22.48;;;9.70;;
51384;SDS011;37478;55.682;37.462;2023-04-03T08:32:36;15.63;;;9.27;;
51384;SDS011;37478;55.682;37.462;2023-04-03T08:35:03;23.00;;;10.05;;
51384;SDS011;37478;55.682;37.462;2023-04-03T08:37:28;19.15;;;10.18;;
51384;SDS011;37478;55.682;37.462;2023-04-03T08:39:53;17.92;;;11.38;;
51384;SDS011;37478;55.682;37.462;2023-04-03T08:47:59;19.17;;;10.88;;
51384;SDS011;37478;55.682;37.462;2023-04-03T08:50:30;24.35;;;11.27;;
51384;SDS011;37478;55.682;37.462;2023-04-03T08:52:57;21.52;;;11.60;;
51384;SDS011;37478;55.682;37.462;2023-04-03T08:57:48;24.58;;;11.43;;
51384;SDS011;37478;55.682;37.462;2023-04-03T09:00:18;24.95;;;11.90;;
51384;SDS011;37478;55.682;37.462;2023-04-03T09:02:44;25.30;;;11.88;;
51384;SDS011;37478;55.682;37.462;2023-04-03T09:05:13;23.20;;;12.02;;
51384;SDS011;37478;55.682;37.462;2023-04-03T09:07:43;20.52;;;11.95;;
51384;SDS011;37478;55.682;37.462;2023-04-03T09:10:12;19.00;;;10.80;;
51384;SDS011;37478;55.682;37.462;2023-04-03T09:12:39;21.25;;;10.70;;
51384;SDS011;37478;55.682;37.462;2023-04-03T09:22:31;22.15;;;13.00;;
51384;SDS011;37478;55.682;37.462;2023-04-03T09:27:34;21.27;;;11.68;;
51384;SDS011;37478;55.682;37.462;2023-04-03T09:29:59;24.05;;;11.75;;
51384;SDS011;37478;55.682;37.462;2023-04-03T09:32:26;32.17;;;13.35;;
51384;SDS011;37478;55.682;37.462;2023-04-03T09:34:52;26.60;;;13.38;;
51384;SDS011;37478;55.682;37.462;2023-04-03T09:37:38;25.23;;;12.00;;
51384;SDS011;37478;55.682;37.462;2023-04-03T09:40:04;20.33;;;12.95;;
51384;SDS011;37478;55.682;37.462;2023-04-03T09:42:29;24.38;;;12.45;;
51384;SDS011;37478;55.682;37.462;2023-04-03T09:44:59;21.20;;;12.43;;
51384;SDS011;37478;55.682;37.462;2023-04-03T09:47:26;23.40;;;12.15;;
51384;SDS011;37478;55.682;37.462;2023-04-03T09:52:49;22.95;;;12.77;;
51384;SDS011;37478;55.682;37.462;2023-04-03T09:55:17;25.58;;;12.85;;
51384;SDS011;37478;55.682;37.462;2023-04-03T09:57:46;27.63;;;12.77;;
51384;SDS011;37478;55.682;37.462;2023-04-03T10:02:46;18.55;;;11.30;;
51384;SDS011;37478;55.682;37.462;2023-04-03T10:05:26;23.75;;;12.63;;
51384;SDS011;37478;55.682;37.462;2023-04-03T10:07:51;21.42;;;12.05;;
51384;SDS011;37478;55.682;37.462;2023-04-03T10:10:20;26.02;;;12.10;;
51384;SDS011;37478;55.682;37.462;2023-04-03T10:12:47;22.50;;;13.13;;
51384;SDS011;37478;55.682;37.462;2023-04-03T10:15:14;32.47;;;14.23;;
51384;SDS011;37478;55.682;37.462;2023-04-03T10:37:52;25.92;;;11.88;;
51384;SDS011;37478;55.682;37.462;2023-04-03T10:42:46;25.67;;;10.68;;
51384;SDS011;37478;55.682;37.462;2023-04-03T10:47:46;18.88;;;10.25;;
51384;SDS011;37478;55.682;37.462;2023-04-03T10:50:25;21.52;;;12.52;;
51384;SDS011;37478;55.682;37.462;2023-04-03T10:52:54;24.75;;;11.50;;
51384;SDS011;37478;55.682;37.462;2023-04-03T10:55:35;23.85;;;12.98;;
51384;SDS011;37478;55.682;37.462;2023-04-03T10:58:01;27.02;;;12.05;;
51384;SDS011;37478;55.682;37.462;2023-04-03T11:03:00;20.25;;;12.45;;
51384;SDS011;37478;55.682;37.462;2023-04-03T11:05:30;21.13;;;12.27;;
51384;SDS011;37478;55.682;37.462;2023-04-03T11:07:57;24.08;;;12.07;;
51384;SDS011;37478;55.682;37.462;2023-04-03T11:10:37;26.30;;;13.82;;
51384;SDS011;37478;55.682;37.462;2023-04-03T11:13:13;26.90;;;12.25;;
51384;SDS011;37478;55.682;37.462;2023-04-03T11:15:38;19.42;;;11.57;;
51384;SDS011;37478;55.682;37.462;2023-04-03T11:18:06;23.00;;;11.20;;
51384;SDS011;37478;55.682;37.462;2023-04-03T11:20:33;25.58;;;11.23;;
51384;SDS011;37478;55.682;37.462;2023-04-03T11:25:34;19.67;;;10.80;;
51384;SDS011;37478;55.682;37.462;2023-04-03T11:28:03;18.63;;;9.85;;
51384;SDS011;37478;55.682;37.462;2023-04-03T11:35:47;23.88;;;11.10;;
51384;SDS011;37478;55.682;37.462;2023-04-03T11:38:21;20.80;;;11.20;;
51384;SDS011;37478;55.682;37.462;2023-04-03T11:40:48;22.33;;;10.02;;
51384;SDS011;37478;55.682;37.462;2023-04-03T11:43:24;17.52;;;10.88;;
51384;SDS011;37478;55.682;37.462;2023-04-03T11:45:55;22.80;;;10.73;;
51384;SDS011;37478;55.682;37.462;2023-04-03T11:50:53;15.25;;;9.40;;
51384;SDS011;37478;55.682;37.462;2023-04-03T11:53:26;21.23;;;10.65;;
51384;SDS011;37478;55.682;37.462;2023-04-03T11:58:19;26.67;;;11.05;;
51384;SDS011;37478;55.682;37.462;2023-04-03T12:11:39;16.90;;;10.25;;
51384;SDS011;37478;55.682;37.462;2023-04-03T12:16:40;18.65;;;10.27;;
51384;SDS011;37478;55.682;37.462;2023-04-03T12:27:02;17.40;;;9.40;;
51384;SDS011;37478;55.682;37.462;2023-04-03T12:37:16;17.95;;;10.65;;
51384;SDS011;37478;55.682;37.462;2023-04-03T12:42:41;20.70;;;9.88;;
51384;SDS011;37478;55.682;37.462;2023-04-03T12:45:20;19.08;;;9.95;;
51384;SDS011;37478;55.682;37.462;2023-04-03T12:47:45;16.88;;;11.57;;
51384;SDS011;37478;55.682;37.462;2023-04-03T12:50:20;18.75;;;10.43;;
51384;SDS011;37478;55.682;37.462;2023-04-03T12:52:59;18.75;;;10.27;;
51384;SDS011;37478;55.682;37.462;2023-04-03T12:55:25;26.92;;;10.77;;
51384;SDS011;37478;55.682;37.462;2023-04-03T12:57:51;19.15;;;9.38;;
51384;SDS011;37478;55.682;37.462;2023-04-03T13:00:30;16.67;;;9.20;;
51384;SDS011;37478;55.682;37.462;2023-04-03T13:02:57;17.38;;;9.25;;
51384;SDS011;37478;55.682;37.462;2023-04-03T13:05:23;17.08;;;7.65;;
51384;SDS011;37478;55.682;37.462;2023-04-03T13:07:49;15.02;;;7.72;;
51384;SDS011;37478;55.682;37.462;2023-04-03T13:10:18;15.35;;;8.63;;
51384;SDS011;37478;55.682;37.462;2023-04-03T13:12:52;13.90;;;7.43;;
51384;SDS011;37478;55.682;37.462;2023-04-03T13:15:19;22.65;;;9.23;;
51384;SDS011;37478;55.682;37.462;2023-04-03T13:17:45;12.88;;;7.13;;
51384;SDS011;37478;55.682;37.462;2023-04-03T13:20:29;16.48;;;7.93;;
51384;SDS011;37478;55.682;37.462;2023-04-03T13:23:05;18.45;;;8.30;;
51384;SDS011;37478;55.682;37.462;2023-04-03T13:25:33;21.55;;;7.45;;
51384;SDS011;37478;55.682;37.462;2023-04-03T13:27:59;21.25;;;6.78;;
51384;SDS011;37478;55.682;37.462;2023-04-03T13:32:51;12.93;;;6.93;;
51384;SDS011;37478;55.682;37.462;2023-04-03T13:35:30;13.35;;;7.78;;
51384;SDS011;37478;55.682;37.462;2023-04-03T13:37:56;14.32;;;8.13;;
51384;SDS011;37478;55.682;37.462;2023-04-03T13:40:22;19.58;;;7.05;;
51384;SDS011;37478;55.682;37.462;2023-04-03T13:42:57;20.33;;;7.78;;
51384;SDS011;37478;55.682;37.462;2023-04-03T13:45:29;14.10;;;6.70;;
51384;SDS011;37478;55.682;37.462;2023-04-03T13:48:17;12.63;;;7.88;;
51384;SDS011;37478;55.682;37.462;2023-04-03T13:53:25;12.65;;;6.97;;
51384;SDS011;37478;55.682;37.462;2023-04-03T13:55:56;17.15;;;6.53;;
51384;SDS011;37478;55.682;37.462;2023-04-03T13:58:27;12.93;;;5.85;;
51384;SDS011;37478;55.682;37.462;2023-04-03T14:03:25;20.65;;;7.55;;
51384;SDS011;37478;55.682;37.462;2023-04-03T14:05:51;11.55;;;7.53;;
51384;SDS011;37478;55.682;37.462;2023-04-03T14:08:17;10.13;;;5.88;;
51384;SDS011;37478;55.682;37.462;2023-04-03T14:10:42;9.60;;;6.53;;
51384;SDS011;37478;55.682;37.462;2023-04-03T14:13:10;9.30;;;6.10;;
51384;SDS011;37478;55.682;37.462;2023-04-03T14:15:36;11.52;;;5.75;;
51384;SDS011;37478;55.682;37.462;2023-04-03T14:18:02;18.75;;;6.40;;
51384;SDS011;37478;55.682;37.462;2023-04-03T14:20:27;12.65;;;6.53;;
51384;SDS011;37478;55.682;37.462;2023-04-03T14:22:52;10.88;;;7.10;;
51384;SDS011;37478;55.682;37.462;2023-04-03T14:25:19;10.13;;;6.70;;
51384;SDS011;37478;55.682;37.462;2023-04-03T14:27:46;10.45;;;6.60;;
51384;SDS011;37478;55.682;37.462;2023-04-03T14:30:14;8.95;;;6.25;;
51384;SDS011;37478;55.682;37.462;2023-04-03T14:32:39;13.65;;;6.50;;
51384;SDS011;37478;55.682;37.462;2023-04-03T14:35:05;12.05;;;6.85;;
51384;SDS011;37478;55.682;37.462;2023-04-03T14:37:31;13.57;;;6.18;;
51384;SDS011;37478;55.682;37.462;2023-04-03T14:39:58;12.68;;;6.40;;
51384;SDS011;37478;55.682;37.462;2023-04-03T14:42:26;14.00;;;7.22;;
51384;SDS011;37478;55.682;37.462;2023-04-03T14:44:51;10.82;;;6.43;;
51384;SDS011;37478;55.682;37.462;2023-04-03T14:47:19;13.93;;;7.10;;
51384;SDS011;37478;55.682;37.462;2023-04-03T14:49:45;14.77;;;7.50;;
51384;SDS011;37478;55.682;37.462;2023-04-03T14:52:16;16.80;;;8.18;;
51384;SDS011;37478;55.682;37.462;2023-04-03T14:54:42;10.95;;;6.35;;
51384;SDS011;37478;55.682;37.462;2023-04-03T14:57:08;10.52;;;6.95;;
51384;SDS011;37478;55.682;37.462;2023-04-03T14:59:34;12.88;;;6.72;;
51384;SDS011;37478;55.682;37.462;2023-04-03T15:01:59;16.02;;;7.75;;
51384;SDS011;37478;55.682;37.462;2023-04-03T15:04:24;10.10;;;6.72;;
51384;SDS011;37478;55.682;37.462;2023-04-03T15:06:50;9.38;;;6.57;;
51384;SDS011;37478;55.682;37.462;2023-04-03T15:09:20;16.02;;;8.55;;
51384;SDS011;37478;55.682;37.462;2023-04-03T15:11:46;16.35;;;7.60;;
51384;SDS011;37478;55.682;37.462;2023-04-03T15:14:11;10.45;;;7.03;;
51384;SDS011;37478;55.682;37.462;2023-04-03T15:16:37;13.63;;;7.30;;
51384;SDS011;37478;55.682;37.462;2023-04-03T15:19:02;15.00;;;6.65;;
51384;SDS011;37478;55.682;37.462;2023-04-03T15:21:27;11.68;;;7.10;;
51384;SDS011;37478;55.682;37.462;2023-04-03T15:23:53;14.27;;;6.40;;
51384;SDS011;37478;55.682;37.462;2023-04-03T15:26:18;13.70;;;6.78;;
51384;SDS011;37478;55.682;37.462;2023-04-03T15:28:43;11.90;;;6.35;;
51384;SDS011;37478;55.682;37.462;2023-04-03T15:31:09;12.70;;;6.40;;
51384;SDS011;37478;55.682;37.462;2023-04-03T15:33:35;11.45;;;6.78;;
51384;SDS011;37478;55.682;37.462;2023-04-03T15:36:00;16.15;;;7.10;;
51384;SDS011;37478;55.682;37.462;2023-04-03T15:38:26;11.63;;;6.43;;
51384;SDS011;37478;55.682;37.462;2023-04-03T15:40:51;10.80;;;6.78;;
51384;SDS011;37478;55.682;37.462;2023-04-03T15:43:16;11.20;;;6.90;;
51384;SDS011;37478;55.682;37.462;2023-04-03T15:45:42;14.27;;;6.65;;
51384;SDS011;37478;55.682;37.462;2023-04-03T15:48:07;14.80;;;6.32;;
51384;SDS011;37478;55.682;37.462;2023-04-03T15:50:33;9.05;;;6.32;;
51384;SDS011;37478;55.682;37.462;2023-04-03T15:52:59;11.50;;;6.90;;
51384;SDS011;37478;55.682;37.462;2023-04-03T15:55:27;10.52;;;6.40;;
51384;SDS011;37478;55.682;37.462;2023-04-03T15:57:53;13.13;;;6.95;;
51384;SDS011;37478;55.682;37.462;2023-04-03T16:00:18;16.17;;;7.57;;